sensor_id;sensor_type;location;lat;lon;timestamp;temperature;humidity
5576;DHT22;2810;50.134;8.626;2022-09-03T00:01:50;16.90;80.00
5576;DHT22;2810;50.134;8.626;2022-09-03T00:05:05;16.90;80.30
5576;DHT22;2810;50.134;8.626;2022-09-03T00:07:11;16.80;80.50
5576;DHT22;2810;50.134;8.626;2022-09-03T00:09:39;16.80;80.30
5576;DHT22;2810;50.134;8.626;2022-09-03T00:12:13;16.80;81.10
5576;DHT22;2810;50.134;8.626;2022-09-03T00:14:41;16.70;82.40
5576;DHT22;2810;50.134;8.626;2022-09-03T00:17:14;16.70;81.50
5576;DHT22;2810;50.134;8.626;2022-09-03T00:19:43;16.70;82.80
5576;DHT22;2810;50.134;8.626;2022-09-03T00:22:12;16.90;82.50
5576;DHT22;2810;50.134;8.626;2022-09-03T00:24:41;16.90;80.60
5576;DHT22;2810;50.134;8.626;2022-09-03T00:27:10;16.80;81.90
5576;DHT22;2810;50.134;8.626;2022-09-03T00:29:42;16.70;82.10
5576;DHT22;2810;50.134;8.626;2022-09-03T00:32:12;16.70;82.50
5576;DHT22;2810;50.134;8.626;2022-09-03T00:34:39;17.20;82.90
5576;DHT22;2810;50.134;8.626;2022-09-03T00:37:07;17.10;82.80
5576;DHT22;2810;50.134;8.626;2022-09-03T00:39:34;16.60;81.80
5576;DHT22;2810;50.134;8.626;2022-09-03T00:47:20;16.70;83.70
5576;DHT22;2810;50.134;8.626;2022-09-03T01:00:27;16.40;85.00
5576;DHT22;2810;50.134;8.626;2022-09-03T01:13:46;16.30;87.30
5576;DHT22;2810;50.134;8.626;2022-09-03T01:16:23;16.20;87.40
5576;DHT22;2810;50.134;8.626;2022-09-03T01:21:37;16.20;88.00
5576;DHT22;2810;50.134;8.626;2022-09-03T01:29:24;16.10;89.40
5576;DHT22;2810;50.134;8.626;2022-09-03T01:31:56;16.00;88.70
5576;DHT22;2810;50.134;8.626;2022-09-03T01:34:28;16.00;89.70
5576;DHT22;2810;50.134;8.626;2022-09-03T01:42:24;15.90;90.80
5576;DHT22;2810;50.134;8.626;2022-09-03T01:47:55;15.90;91.20
5576;DHT22;2810;50.134;8.626;2022-09-03T01:52:58;15.70;91.80
5576;DHT22;2810;50.134;8.626;2022-09-03T01:57:54;15.80;91.70
5576;DHT22;2810;50.134;8.626;2022-09-03T02:00:22;15.80;91.80
5576;DHT22;2810;50.134;8.626;2022-09-03T02:02:50;15.80;92.30
5576;DHT22;2810;50.134;8.626;2022-09-03T02:05:22;15.90;92.50
5576;DHT22;2810;50.134;8.626;2022-09-03T02:07:50;15.90;92.60
5576;DHT22;2810;50.134;8.626;2022-09-03T02:10:20;15.90;92.80
5576;DHT22;2810;50.134;8.626;2022-09-03T02:12:56;15.90;92.30
5576;DHT22;2810;50.134;8.626;2022-09-03T02:15:23;16.00;92.70
5576;DHT22;2810;50.134;8.626;2022-09-03T02:17:50;16.10;93.10
5576;DHT22;2810;50.134;8.626;2022-09-03T02:20:19;16.20;92.50
5576;DHT22;2810;50.134;8.626;2022-09-03T02:22:46;16.20;92.10
5576;DHT22;2810;50.134;8.626;2022-09-03T02:25:12;16.20;92.00
5576;DHT22;2810;50.134;8.626;2022-09-03T02:27:38;16.20;92.60
5576;DHT22;2810;50.134;8.626;2022-09-03T02:30:03;16.20;92.10
5576;DHT22;2810;50.134;8.626;2022-09-03T02:32:29;16.30;92.50
5576;DHT22;2810;50.134;8.626;2022-09-03T02:34:55;16.20;92.20
5576;DHT22;2810;50.134;8.626;2022-09-03T02:37:20;16.20;92.60
5576;DHT22;2810;50.134;8.626;2022-09-03T02:39:46;16.20;93.00
5576;DHT22;2810;50.134;8.626;2022-09-03T02:42:12;16.20;93.30
5576;DHT22;2810;50.134;8.626;2022-09-03T02:44:40;16.30;92.80
5576;DHT22;2810;50.134;8.626;2022-09-03T02:47:07;16.20;93.40
5576;DHT22;2810;50.134;8.626;2022-09-03T02:49:33;16.30;93.20
5576;DHT22;2810;50.134;8.626;2022-09-03T02:51:59;16.20;93.50
5576;DHT22;2810;50.134;8.626;2022-09-03T02:54:25;16.20;93.70
5576;DHT22;2810;50.134;8.626;2022-09-03T02:56:51;16.20;93.60
5576;DHT22;2810;50.134;8.626;2022-09-03T02:59:17;16.30;93.60
5576;DHT22;2810;50.134;8.626;2022-09-03T03:01:42;16.40;93.50
5576;DHT22;2810;50.134;8.626;2022-09-03T03:04:08;16.40;93.20
5576;DHT22;2810;50.134;8.626;2022-09-03T03:06:33;16.50;93.20
5576;DHT22;2810;50.134;8.626;2022-09-03T03:08:59;16.40;93.20
5576;DHT22;2810;50.134;8.626;2022-09-03T03:11:29;16.50;93.60
5576;DHT22;2810;50.134;8.626;2022-09-03T03:13:55;16.50;93.40
5576;DHT22;2810;50.134;8.626;2022-09-03T03:16:20;16.50;93.50
5576;DHT22;2810;50.134;8.626;2022-09-03T03:18:45;16.50;93.20
5576;DHT22;2810;50.134;8.626;2022-09-03T03:21:12;16.60;93.70
5576;DHT22;2810;50.134;8.626;2022-09-03T03:23:38;16.60;93.30
5576;DHT22;2810;50.134;8.626;2022-09-03T03:26:05;16.60;93.60
5576;DHT22;2810;50.134;8.626;2022-09-03T03:28:31;16.60;93.30
5576;DHT22;2810;50.134;8.626;2022-09-03T03:30:58;16.60;93.70
5576;DHT22;2810;50.134;8.626;2022-09-03T03:33:24;16.60;93.70
5576;DHT22;2810;50.134;8.626;2022-09-03T03:35:49;16.60;93.30
5576;DHT22;2810;50.134;8.626;2022-09-03T03:38:15;16.80;93.60
5576;DHT22;2810;50.134;8.626;2022-09-03T03:40:40;16.60;93.80
5576;DHT22;2810;50.134;8.626;2022-09-03T03:43:05;16.60;93.70
5576;DHT22;2810;50.134;8.626;2022-09-03T03:45:31;16.60;93.60
5576;DHT22;2810;50.134;8.626;2022-09-03T03:47:57;16.60;93.80
5576;DHT22;2810;50.134;8.626;2022-09-03T03:50:23;16.60;94.00
5576;DHT22;2810;50.134;8.626;2022-09-03T03:52:49;16.60;93.80
5576;DHT22;2810;50.134;8.626;2022-09-03T03:55:14;16.60;93.70
5576;DHT22;2810;50.134;8.626;2022-09-03T03:57:40;16.60;93.70
5576;DHT22;2810;50.134;8.626;2022-09-03T04:00:05;16.60;93.50
5576;DHT22;2810;50.134;8.626;2022-09-03T04:02:32;16.60;93.70
5576;DHT22;2810;50.134;8.626;2022-09-03T04:04:57;16.60;93.60
5576;DHT22;2810;50.134;8.626;2022-09-03T04:07:23;16.70;93.90
5576;DHT22;2810;50.134;8.626;2022-09-03T04:09:48;16.60;93.80
5576;DHT22;2810;50.134;8.626;2022-09-03T04:12:13;16.60;93.90
5576;DHT22;2810;50.134;8.626;2022-09-03T04:14:39;16.60;93.90
5576;DHT22;2810;50.134;8.626;2022-09-03T04:17:05;16.60;93.80
5576;DHT22;2810;50.134;8.626;2022-09-03T04:19:31;16.50;94.00
5576;DHT22;2810;50.134;8.626;2022-09-03T04:21:56;16.50;94.10
5576;DHT22;2810;50.134;8.626;2022-09-03T04:24:22;16.50;94.00
5576;DHT22;2810;50.134;8.626;2022-09-03T04:26:47;16.60;94.20
5576;DHT22;2810;50.134;8.626;2022-09-03T04:29:14;16.60;94.30
5576;DHT22;2810;50.134;8.626;2022-09-03T04:31:40;16.60;94.40
5576;DHT22;2810;50.134;8.626;2022-09-03T04:34:25;16.90;94.20
5576;DHT22;2810;50.134;8.626;2022-09-03T04:36:50;16.50;94.00
5576;DHT22;2810;50.134;8.626;2022-09-03T04:39:16;16.50;94.10
5576;DHT22;2810;50.134;8.626;2022-09-03T04:41:41;16.50;94.20
5576;DHT22;2810;50.134;8.626;2022-09-03T04:44:07;16.60;94.50
5576;DHT22;2810;50.134;8.626;2022-09-03T04:46:32;16.60;94.20
5576;DHT22;2810;50.134;8.626;2022-09-03T04:48:58;16.60;94.50
5576;DHT22;2810;50.134;8.626;2022-09-03T04:51:24;16.50;94.50
5576;DHT22;2810;50.134;8.626;2022-09-03T04:53:52;16.50;95.10
5576;DHT22;2810;50.134;8.626;2022-09-03T04:56:19;16.50;95.10
5576;DHT22;2810;50.134;8.626;2022-09-03T04:58:45;16.50;95.00
5576;DHT22;2810;50.134;8.626;2022-09-03T05:01:14;16.60;95.20
5576;DHT22;2810;50.134;8.626;2022-09-03T05:03:40;16.80;95.10
5576;DHT22;2810;50.134;8.626;2022-09-03T05:06:05;16.60;95.00
5576;DHT22;2810;50.134;8.626;2022-09-03T05:08:32;16.60;95.20
5576;DHT22;2810;50.134;8.626;2022-09-03T05:11:01;16.60;95.10
5576;DHT22;2810;50.134;8.626;2022-09-03T05:13:27;16.70;95.20
5576;DHT22;2810;50.134;8.626;2022-09-03T05:15:57;16.70;95.20
5576;DHT22;2810;50.134;8.626;2022-09-03T05:18:23;16.70;95.90
5576;DHT22;2810;50.134;8.626;2022-09-03T05:20:56;16.70;95.20
5576;DHT22;2810;50.134;8.626;2022-09-03T05:23:21;16.70;96.00
5576;DHT22;2810;50.134;8.626;2022-09-03T05:25:56;16.70;95.60
5576;DHT22;2810;50.134;8.626;2022-09-03T05:28:23;16.70;96.10
5576;DHT22;2810;50.134;8.626;2022-09-03T05:30:57;16.80;95.80
5576;DHT22;2810;50.134;8.626;2022-09-03T05:33:22;16.80;95.40
5576;DHT22;2810;50.134;8.626;2022-09-03T05:35:48;16.80;95.10
5576;DHT22;2810;50.134;8.626;2022-09-03T05:38:13;16.80;95.30
5576;DHT22;2810;50.134;8.626;2022-09-03T05:40:40;16.80;95.50
5576;DHT22;2810;50.134;8.626;2022-09-03T05:43:06;16.90;95.20
5576;DHT22;2810;50.134;8.626;2022-09-03T05:45:31;17.00;95.20
5576;DHT22;2810;50.134;8.626;2022-09-03T05:47:58;17.00;95.20
5576;DHT22;2810;50.134;8.626;2022-09-03T05:50:24;17.00;95.50
5576;DHT22;2810;50.134;8.626;2022-09-03T05:52:49;17.10;95.10
5576;DHT22;2810;50.134;8.626;2022-09-03T05:55:15;17.10;95.30
5576;DHT22;2810;50.134;8.626;2022-09-03T05:57:41;17.20;95.70
5576;DHT22;2810;50.134;8.626;2022-09-03T06:00:07;17.20;95.80
5576;DHT22;2810;50.134;8.626;2022-09-03T06:02:33;17.20;95.80
5576;DHT22;2810;50.134;8.626;2022-09-03T06:04:59;17.20;95.80
5576;DHT22;2810;50.134;8.626;2022-09-03T06:07:24;17.20;95.80
5576;DHT22;2810;50.134;8.626;2022-09-03T06:09:50;17.20;95.80
5576;DHT22;2810;50.134;8.626;2022-09-03T06:12:15;17.30;96.00
5576;DHT22;2810;50.134;8.626;2022-09-03T06:14:41;17.30;96.00
5576;DHT22;2810;50.134;8.626;2022-09-03T06:17:06;17.30;96.80
5576;DHT22;2810;50.134;8.626;2022-09-03T06:19:35;17.40;97.10
5576;DHT22;2810;50.134;8.626;2022-09-03T06:22:01;17.40;96.70
5576;DHT22;2810;50.134;8.626;2022-09-03T06:24:26;17.40;96.50
5576;DHT22;2810;50.134;8.626;2022-09-03T06:26:56;17.40;96.90
5576;DHT22;2810;50.134;8.626;2022-09-03T06:29:22;17.40;97.60
5576;DHT22;2810;50.134;8.626;2022-09-03T06:31:47;17.40;97.40
5576;DHT22;2810;50.134;8.626;2022-09-03T06:34:13;17.50;97.10
5576;DHT22;2810;50.134;8.626;2022-09-03T06:36:38;17.50;97.30
5576;DHT22;2810;50.134;8.626;2022-09-03T06:39:05;17.50;98.10
5576;DHT22;2810;50.134;8.626;2022-09-03T06:41:31;17.50;98.40
5576;DHT22;2810;50.134;8.626;2022-09-03T06:43:59;17.60;98.40
5576;DHT22;2810;50.134;8.626;2022-09-03T06:46:27;17.60;98.30
5576;DHT22;2810;50.134;8.626;2022-09-03T06:48:53;17.60;98.40
5576;DHT22;2810;50.134;8.626;2022-09-03T06:51:20;17.60;99.70
5576;DHT22;2810;50.134;8.626;2022-09-03T06:53:46;17.60;99.90
5576;DHT22;2810;50.134;8.626;2022-09-03T06:56:13;17.60;99.90
5576;DHT22;2810;50.134;8.626;2022-09-03T06:58:40;17.60;99.90
5576;DHT22;2810;50.134;8.626;2022-09-03T07:01:12;17.60;99.90
5576;DHT22;2810;50.134;8.626;2022-09-03T07:03:40;17.60;99.90
5576;DHT22;2810;50.134;8.626;2022-09-03T07:06:06;17.50;99.90
5576;DHT22;2810;50.134;8.626;2022-09-03T07:08:32;17.50;99.90
5576;DHT22;2810;50.134;8.626;2022-09-03T07:10:59;17.50;99.90
5576;DHT22;2810;50.134;8.626;2022-09-03T07:13:24;17.40;99.90
5576;DHT22;2810;50.134;8.626;2022-09-03T07:18:48;17.50;99.90
5576;DHT22;2810;50.134;8.626;2022-09-03T07:21:20;17.50;99.90
5576;DHT22;2810;50.134;8.626;2022-09-03T07:23:46;17.50;99.90
5576;DHT22;2810;50.134;8.626;2022-09-03T07:26:16;17.60;99.90
5576;DHT22;2810;50.134;8.626;2022-09-03T07:28:44;17.50;99.90
5576;DHT22;2810;50.134;8.626;2022-09-03T07:31:17;17.40;99.90
5576;DHT22;2810;50.134;8.626;2022-09-03T07:33:44;17.50;99.90
5576;DHT22;2810;50.134;8.626;2022-09-03T07:36:10;17.50;99.90
5576;DHT22;2810;50.134;8.626;2022-09-03T07:38:38;17.50;99.90
5576;DHT22;2810;50.134;8.626;2022-09-03T07:41:05;17.50;99.90
5576;DHT22;2810;50.134;8.626;2022-09-03T07:43:35;17.40;99.90
5576;DHT22;2810;50.134;8.626;2022-09-03T07:46:00;17.40;99.90
5576;DHT22;2810;50.134;8.626;2022-09-03T07:48:27;17.40;99.90
5576;DHT22;2810;50.134;8.626;2022-09-03T07:50:56;17.40;99.90
5576;DHT22;2810;50.134;8.626;2022-09-03T07:53:24;17.40;99.90
5576;DHT22;2810;50.134;8.626;2022-09-03T07:55:49;17.40;99.90
5576;DHT22;2810;50.134;8.626;2022-09-03T07:58:15;17.40;99.90
5576;DHT22;2810;50.134;8.626;2022-09-03T08:00:42;17.50;99.90
5576;DHT22;2810;50.134;8.626;2022-09-03T08:03:07;17.40;99.90
5576;DHT22;2810;50.134;8.626;2022-09-03T08:05:34;17.40;99.90
5576;DHT22;2810;50.134;8.626;2022-09-03T08:08:03;17.40;99.90
5576;DHT22;2810;50.134;8.626;2022-09-03T08:10:29;17.40;99.90
5576;DHT22;2810;50.134;8.626;2022-09-03T08:12:57;17.40;99.90
5576;DHT22;2810;50.134;8.626;2022-09-03T08:15:23;17.40;99.90
5576;DHT22;2810;50.134;8.626;2022-09-03T08:17:49;17.30;99.90
5576;DHT22;2810;50.134;8.626;2022-09-03T08:20:14;17.20;99.90
5576;DHT22;2810;50.134;8.626;2022-09-03T08:22:40;17.10;99.90
5576;DHT22;2810;50.134;8.626;2022-09-03T08:25:06;17.00;99.90
5576;DHT22;2810;50.134;8.626;2022-09-03T08:27:31;16.90;99.90
5576;DHT22;2810;50.134;8.626;2022-09-03T08:29:57;17.00;99.90
5576;DHT22;2810;50.134;8.626;2022-09-03T08:32:22;17.00;99.90
5576;DHT22;2810;50.134;8.626;2022-09-03T08:34:48;16.90;99.90
5576;DHT22;2810;50.134;8.626;2022-09-03T08:37:15;17.00;99.90
5576;DHT22;2810;50.134;8.626;2022-09-03T08:39:40;17.00;99.90
5576;DHT22;2810;50.134;8.626;2022-09-03T08:49:45;17.00;99.90
5576;DHT22;2810;50.134;8.626;2022-09-03T08:54:47;17.40;99.90
5576;DHT22;2810;50.134;8.626;2022-09-03T08:57:13;17.80;99.90
5576;DHT22;2810;50.134;8.626;2022-09-03T08:59:39;18.30;99.90
5576;DHT22;2810;50.134;8.626;2022-09-03T09:09:45;19.20;99.90
5576;DHT22;2810;50.134;8.626;2022-09-03T09:12:27;19.10;99.90
5576;DHT22;2810;50.134;8.626;2022-09-03T09:20:04;19.60;99.90
5576;DHT22;2810;50.134;8.626;2022-09-03T09:22:36;21.30;99.90
5576;DHT22;2810;50.134;8.626;2022-09-03T09:25:05;22.60;99.90
5576;DHT22;2810;50.134;8.626;2022-09-03T09:27:33;23.30;99.90
5576;DHT22;2810;50.134;8.626;2022-09-03T09:30:00;23.40;99.90
5576;DHT22;2810;50.134;8.626;2022-09-03T09:32:26;22.50;99.90
5576;DHT22;2810;50.134;8.626;2022-09-03T09:34:51;21.70;99.90
5576;DHT22;2810;50.134;8.626;2022-09-03T09:37:18;21.10;99.90
5576;DHT22;2810;50.134;8.626;2022-09-03T09:39:54;20.70;99.90
5576;DHT22;2810;50.134;8.626;2022-09-03T09:42:21;20.00;99.90
5576;DHT22;2810;50.134;8.626;2022-09-03T09:44:46;19.80;99.90
5576;DHT22;2810;50.134;8.626;2022-09-03T09:47:13;19.70;99.90
5576;DHT22;2810;50.134;8.626;2022-09-03T09:49:59;19.70;99.90
5576;DHT22;2810;50.134;8.626;2022-09-03T09:52:25;19.80;99.90
5576;DHT22;2810;50.134;8.626;2022-09-03T09:54:53;19.60;99.90
5576;DHT22;2810;50.134;8.626;2022-09-03T09:57:31;19.50;99.90
5576;DHT22;2810;50.134;8.626;2022-09-03T10:00:10;19.20;99.90
5576;DHT22;2810;50.134;8.626;2022-09-03T10:02:37;19.10;99.90
5576;DHT22;2810;50.134;8.626;2022-09-03T10:05:11;18.90;99.90
5576;DHT22;2810;50.134;8.626;2022-09-03T10:07:37;18.90;99.90
5576;DHT22;2810;50.134;8.626;2022-09-03T10:12:32;18.80;99.90
5576;DHT22;2810;50.134;8.626;2022-09-03T10:15:02;18.80;99.90
5576;DHT22;2810;50.134;8.626;2022-09-03T10:17:48;18.90;99.90
5576;DHT22;2810;50.134;8.626;2022-09-03T10:20:25;19.00;99.90
5576;DHT22;2810;50.134;8.626;2022-09-03T10:23:02;19.00;99.90
5576;DHT22;2810;50.134;8.626;2022-09-03T10:25:34;19.00;99.90
5576;DHT22;2810;50.134;8.626;2022-09-03T10:28:04;19.00;99.90
5576;DHT22;2810;50.134;8.626;2022-09-03T10:30:30;19.20;99.90
5576;DHT22;2810;50.134;8.626;2022-09-03T10:33:09;19.40;99.90
5576;DHT22;2810;50.134;8.626;2022-09-03T10:35:45;19.80;99.90
5576;DHT22;2810;50.134;8.626;2022-09-03T10:38:17;20.40;99.90
5576;DHT22;2810;50.134;8.626;2022-09-03T10:45:52;21.60;99.90
5576;DHT22;2810;50.134;8.626;2022-09-03T10:51:03;21.10;99.90
5576;DHT22;2810;50.134;8.626;2022-09-03T10:58:41;20.90;99.90
5576;DHT22;2810;50.134;8.626;2022-09-03T11:06:40;21.40;99.90
5576;DHT22;2810;50.134;8.626;2022-09-03T11:09:12;21.50;99.90
5576;DHT22;2810;50.134;8.626;2022-09-03T11:11:41;21.50;99.90
5576;DHT22;2810;50.134;8.626;2022-09-03T11:14:09;21.60;99.90
5576;DHT22;2810;50.134;8.626;2022-09-03T11:16:39;21.70;99.90
5576;DHT22;2810;50.134;8.626;2022-09-03T11:19:06;21.90;99.90
5576;DHT22;2810;50.134;8.626;2022-09-03T11:21:36;22.00;99.90
5576;DHT22;2810;50.134;8.626;2022-09-03T11:24:12;21.90;99.90
5576;DHT22;2810;50.134;8.626;2022-09-03T11:26:38;21.70;99.90
5576;DHT22;2810;50.134;8.626;2022-09-03T11:31:57;21.60;99.90
5576;DHT22;2810;50.134;8.626;2022-09-03T11:36:50;21.80;99.90
5576;DHT22;2810;50.134;8.626;2022-09-03T11:39:20;21.80;99.90
5576;DHT22;2810;50.134;8.626;2022-09-03T11:42:00;22.10;99.90
5576;DHT22;2810;50.134;8.626;2022-09-03T11:44:38;22.40;99.90
5576;DHT22;2810;50.134;8.626;2022-09-03T11:47:14;22.70;99.90
5576;DHT22;2810;50.134;8.626;2022-09-03T11:49:44;22.90;99.90
5576;DHT22;2810;50.134;8.626;2022-09-03T11:52:10;23.20;99.90
5576;DHT22;2810;50.134;8.626;2022-09-03T11:54:43;23.60;99.90
5576;DHT22;2810;50.134;8.626;2022-09-03T11:57:14;23.90;99.90
5576;DHT22;2810;50.134;8.626;2022-09-03T11:59:40;24.00;99.90
5576;DHT22;2810;50.134;8.626;2022-09-03T12:02:19;23.90;99.90
5576;DHT22;2810;50.134;8.626;2022-09-03T12:14:49;23.50;99.90
5576;DHT22;2810;50.134;8.626;2022-09-03T12:19:50;24.90;99.90
5576;DHT22;2810;50.134;8.626;2022-09-03T12:22:17;25.90;99.90
5576;DHT22;2810;50.134;8.626;2022-09-03T12:24:43;26.80;98.00
5576;DHT22;2810;50.134;8.626;2022-09-03T12:27:42;27.40;95.50
5576;DHT22;2810;50.134;8.626;2022-09-03T12:30:02;27.70;94.20
5576;DHT22;2810;50.134;8.626;2022-09-03T12:32:29;28.20;92.00
5576;DHT22;2810;50.134;8.626;2022-09-03T12:34:56;28.00;92.10
5576;DHT22;2810;50.134;8.626;2022-09-03T12:37:23;27.80;92.40
5576;DHT22;2810;50.134;8.626;2022-09-03T12:39:50;27.50;92.20
5576;DHT22;2810;50.134;8.626;2022-09-03T12:42:19;27.00;92.10
5576;DHT22;2810;50.134;8.626;2022-09-03T12:44:45;26.70;93.00
5576;DHT22;2810;50.134;8.626;2022-09-03T12:49:37;27.00;92.20
5576;DHT22;2810;50.134;8.626;2022-09-03T12:52:05;27.00;92.50
5576;DHT22;2810;50.134;8.626;2022-09-03T12:54:32;27.00;93.00
5576;DHT22;2810;50.134;8.626;2022-09-03T12:56:58;27.10;92.70
5576;DHT22;2810;50.134;8.626;2022-09-03T12:59:25;27.30;92.20
5576;DHT22;2810;50.134;8.626;2022-09-03T13:01:52;27.10;91.60
5576;DHT22;2810;50.134;8.626;2022-09-03T13:04:23;26.50;92.40
5576;DHT22;2810;50.134;8.626;2022-09-03T13:06:52;26.10;93.30
5576;DHT22;2810;50.134;8.626;2022-09-03T13:09:24;25.70;93.90
5576;DHT22;2810;50.134;8.626;2022-09-03T13:11:51;25.30;94.20
5576;DHT22;2810;50.134;8.626;2022-09-03T13:14:19;25.00;94.90
5576;DHT22;2810;50.134;8.626;2022-09-03T13:24:15;24.50;95.80
5576;DHT22;2810;50.134;8.626;2022-09-03T13:26:47;24.30;96.20
5576;DHT22;2810;50.134;8.626;2022-09-03T13:31:43;24.00;97.00
5576;DHT22;2810;50.134;8.626;2022-09-03T13:34:14;23.90;97.40
5576;DHT22;2810;50.134;8.626;2022-09-03T13:36:45;23.90;97.90
5576;DHT22;2810;50.134;8.626;2022-09-03T13:39:27;23.70;97.40
5576;DHT22;2810;50.134;8.626;2022-09-03T13:44:39;23.70;97.50
5576;DHT22;2810;50.134;8.626;2022-09-03T13:47:21;23.90;98.00
5576;DHT22;2810;50.134;8.626;2022-09-03T13:49:52;24.00;97.90
5576;DHT22;2810;50.134;8.626;2022-09-03T13:52:39;23.90;97.60
5576;DHT22;2810;50.134;8.626;2022-09-03T13:57:49;23.80;97.90
5576;DHT22;2810;50.134;8.626;2022-09-03T14:00:22;23.90;98.50
5576;DHT22;2810;50.134;8.626;2022-09-03T14:02:51;24.10;98.10
5576;DHT22;2810;50.134;8.626;2022-09-03T14:08:11;24.50;97.40
5576;DHT22;2810;50.134;8.626;2022-09-03T14:13:31;24.60;97.00
5576;DHT22;2810;50.134;8.626;2022-09-03T14:21:50;24.70;97.60
5576;DHT22;2810;50.134;8.626;2022-09-03T14:24:21;24.80;97.40
5576;DHT22;2810;50.134;8.626;2022-09-03T14:26:58;24.90;96.90
5576;DHT22;2810;50.134;8.626;2022-09-03T14:29:27;24.90;96.80
5576;DHT22;2810;50.134;8.626;2022-09-03T14:37:16;24.60;97.10
5576;DHT22;2810;50.134;8.626;2022-09-03T14:47:11;24.10;97.50
5576;DHT22;2810;50.134;8.626;2022-09-03T14:54:56;23.80;99.10
5576;DHT22;2810;50.134;8.626;2022-09-03T14:59:59;23.60;99.40
5576;DHT22;2810;50.134;8.626;2022-09-03T15:07:52;23.90;99.80
5576;DHT22;2810;50.134;8.626;2022-09-03T15:10:29;24.00;99.20
5576;DHT22;2810;50.134;8.626;2022-09-03T15:13:05;24.20;99.20
5576;DHT22;2810;50.134;8.626;2022-09-03T15:15:35;24.30;98.70
5576;DHT22;2810;50.134;8.626;2022-09-03T15:21:00;24.10;99.40
5576;DHT22;2810;50.134;8.626;2022-09-03T15:26:16;24.30;99.40
5576;DHT22;2810;50.134;8.626;2022-09-03T15:31:25;24.20;99.50
5576;DHT22;2810;50.134;8.626;2022-09-03T15:33:58;24.00;99.90
5576;DHT22;2810;50.134;8.626;2022-09-03T15:36:26;23.90;99.90
5576;DHT22;2810;50.134;8.626;2022-09-03T15:38:57;23.70;99.90
5576;DHT22;2810;50.134;8.626;2022-09-03T15:41:29;23.50;99.90
5576;DHT22;2810;50.134;8.626;2022-09-03T15:43:58;23.30;99.90
5576;DHT22;2810;50.134;8.626;2022-09-03T15:46:29;23.20;99.90
5576;DHT22;2810;50.134;8.626;2022-09-03T15:48:59;23.20;99.90
5576;DHT22;2810;50.134;8.626;2022-09-03T15:51:27;23.20;99.90
5576;DHT22;2810;50.134;8.626;2022-09-03T15:53:59;23.20;99.90
5576;DHT22;2810;50.134;8.626;2022-09-03T15:56:35;23.20;99.90
5576;DHT22;2810;50.134;8.626;2022-09-03T16:01:31;23.20;99.90
5576;DHT22;2810;50.134;8.626;2022-09-03T16:04:10;23.20;99.90
5576;DHT22;2810;50.134;8.626;2022-09-03T16:06:43;23.20;99.90
5576;DHT22;2810;50.134;8.626;2022-09-03T16:11:51;23.20;99.90
5576;DHT22;2810;50.134;8.626;2022-09-03T16:14:20;23.20;99.90
5576;DHT22;2810;50.134;8.626;2022-09-03T16:32:46;23.50;99.90
5576;DHT22;2810;50.134;8.626;2022-09-03T16:35:16;23.30;99.90
5576;DHT22;2810;50.134;8.626;2022-09-03T16:37:45;23.20;99.90
5576;DHT22;2810;50.134;8.626;2022-09-03T16:40:26;23.20;99.90
5576;DHT22;2810;50.134;8.626;2022-09-03T16:43:16;23.10;99.90
5576;DHT22;2810;50.134;8.626;2022-09-03T16:51:07;22.90;99.90
5576;DHT22;2810;50.134;8.626;2022-09-03T16:56:52;22.70;99.90
5576;DHT22;2810;50.134;8.626;2022-09-03T16:59:26;22.60;99.90
5576;DHT22;2810;50.134;8.626;2022-09-03T17:04:35;22.50;99.90
5576;DHT22;2810;50.134;8.626;2022-09-03T17:07:15;22.50;99.90
5576;DHT22;2810;50.134;8.626;2022-09-03T17:14:56;22.40;99.90
5576;DHT22;2810;50.134;8.626;2022-09-03T17:20:11;22.40;99.90
5576;DHT22;2810;50.134;8.626;2022-09-03T17:25:39;22.30;99.90
5576;DHT22;2810;50.134;8.626;2022-09-03T17:30:55;22.00;99.90
5576;DHT22;2810;50.134;8.626;2022-09-03T17:38:28;21.60;99.90
5576;DHT22;2810;50.134;8.626;2022-09-03T17:41:02;21.40;99.90
5576;DHT22;2810;50.134;8.626;2022-09-03T17:43:33;21.40;99.90
5576;DHT22;2810;50.134;8.626;2022-09-03T17:46:25;21.30;99.90
5576;DHT22;2810;50.134;8.626;2022-09-03T17:48:53;21.20;99.90
5576;DHT22;2810;50.134;8.626;2022-09-03T17:54:26;21.10;99.90
5576;DHT22;2810;50.134;8.626;2022-09-03T18:02:20;20.90;99.90
5576;DHT22;2810;50.134;8.626;2022-09-03T18:04:48;20.70;99.90
5576;DHT22;2810;50.134;8.626;2022-09-03T18:07:19;20.70;99.90
5576;DHT22;2810;50.134;8.626;2022-09-03T18:09:51;20.60;99.90
5576;DHT22;2810;50.134;8.626;2022-09-03T18:14:51;20.60;99.90
5576;DHT22;2810;50.134;8.626;2022-09-03T18:20:07;20.50;99.90
5576;DHT22;2810;50.134;8.626;2022-09-03T18:22:57;20.40;99.90
5576;DHT22;2810;50.134;8.626;2022-09-03T18:25:46;20.40;99.90
5576;DHT22;2810;50.134;8.626;2022-09-03T18:28:34;20.40;99.90
5576;DHT22;2810;50.134;8.626;2022-09-03T18:31:20;20.30;99.90
5576;DHT22;2810;50.134;8.626;2022-09-03T18:34:04;20.30;99.90
5576;DHT22;2810;50.134;8.626;2022-09-03T18:36:50;20.30;99.90
5576;DHT22;2810;50.134;8.626;2022-09-03T18:39:34;20.30;99.90
5576;DHT22;2810;50.134;8.626;2022-09-03T18:42:28;20.20;99.90
5576;DHT22;2810;50.134;8.626;2022-09-03T18:51:23;20.10;99.90
5576;DHT22;2810;50.134;8.626;2022-09-03T18:57:47;20.10;99.90
5576;DHT22;2810;50.134;8.626;2022-09-03T19:00:23;20.10;99.90
5576;DHT22;2810;50.134;8.626;2022-09-03T19:03:14;20.00;99.90
5576;DHT22;2810;50.134;8.626;2022-09-03T19:06:06;20.00;99.90
5576;DHT22;2810;50.134;8.626;2022-09-03T19:12:14;19.90;99.90
5576;DHT22;2810;50.134;8.626;2022-09-03T19:17:59;19.80;99.90
5576;DHT22;2810;50.134;8.626;2022-09-03T19:20:51;19.80;99.90
5576;DHT22;2810;50.134;8.626;2022-09-03T19:23:37;20.00;99.90
5576;DHT22;2810;50.134;8.626;2022-09-03T19:26:30;19.90;99.90
5576;DHT22;2810;50.134;8.626;2022-09-03T19:32:16;19.70;99.90
5576;DHT22;2810;50.134;8.626;2022-09-03T19:35:14;19.70;99.90
5576;DHT22;2810;50.134;8.626;2022-09-03T19:38:09;19.60;99.90
5576;DHT22;2810;50.134;8.626;2022-09-03T19:41:02;19.60;99.90
5576;DHT22;2810;50.134;8.626;2022-09-03T19:43:56;19.50;99.90
5576;DHT22;2810;50.134;8.626;2022-09-03T19:46:49;19.50;99.90
5576;DHT22;2810;50.134;8.626;2022-09-03T19:52:48;19.40;99.90
5576;DHT22;2810;50.134;8.626;2022-09-03T19:55:35;19.40;99.90
5576;DHT22;2810;50.134;8.626;2022-09-03T19:58:22;19.30;99.90
5576;DHT22;2810;50.134;8.626;2022-09-03T20:01:07;19.30;99.90
5576;DHT22;2810;50.134;8.626;2022-09-03T20:03:51;19.20;99.90
5576;DHT22;2810;50.134;8.626;2022-09-03T20:06:37;19.20;99.90
5576;DHT22;2810;50.134;8.626;2022-09-03T20:09:28;19.20;99.90
5576;DHT22;2810;50.134;8.626;2022-09-03T20:12:15;19.00;99.90
5576;DHT22;2810;50.134;8.626;2022-09-03T20:14:41;19.00;99.90
5576;DHT22;2810;50.134;8.626;2022-09-03T20:22:36;18.90;99.90
5576;DHT22;2810;50.134;8.626;2022-09-03T20:27:53;18.80;99.90
5576;DHT22;2810;50.134;8.626;2022-09-03T20:30:21;18.70;99.90
5576;DHT22;2810;50.134;8.626;2022-09-03T20:32:55;18.70;99.90
5576;DHT22;2810;50.134;8.626;2022-09-03T20:35:26;18.60;99.90
5576;DHT22;2810;50.134;8.626;2022-09-03T20:38:17;18.60;99.90
5576;DHT22;2810;50.134;8.626;2022-09-03T20:40:45;18.50;99.90
5576;DHT22;2810;50.134;8.626;2022-09-03T20:43:17;18.50;99.90
5576;DHT22;2810;50.134;8.626;2022-09-03T20:46:19;18.40;99.90
5576;DHT22;2810;50.134;8.626;2022-09-03T20:48:38;18.40;99.90
5576;DHT22;2810;50.134;8.626;2022-09-03T20:51:19;18.30;99.90
5576;DHT22;2810;50.134;8.626;2022-09-03T20:59:29;18.20;99.90
5576;DHT22;2810;50.134;8.626;2022-09-03T21:09:45;18.10;99.90